createdAt,value
2023-01-07T00:01:36.998Z,100.00
2023-01-07T00:04:06.515Z,100.00
2023-01-07T00:06:37.394Z,100.00
2023-01-07T00:09:07.198Z,100.00
2023-01-07T00:11:39.392Z,100.00
2023-01-07T00:14:09.880Z,100.00
2023-01-07T00:16:38.488Z,100.00
2023-01-07T00:19:07.617Z,100.00
2023-01-07T00:21:34.645Z,100.00
2023-01-07T00:24:04.830Z,100.00
2023-01-07T00:26:35.732Z,100.00
2023-01-07T00:29:03.291Z,100.00
2023-01-07T00:31:36.314Z,100.00
2023-01-07T00:34:03.348Z,100.00
2023-01-07T00:36:39.870Z,100.00
2023-01-07T00:39:10.980Z,100.00
2023-01-07T00:41:38.459Z,100.00
2023-01-07T00:44:07.233Z,100.00
2023-01-07T00:46:34.356Z,100.00
2023-01-07T00:49:02.168Z,100.00
2023-01-07T00:51:29.084Z,100.00
2023-01-07T00:53:55.881Z,100.00
2023-01-07T00:56:22.669Z,100.00
2023-01-07T00:58:49.483Z,100.00
2023-01-07T01:01:16.449Z,100.00
2023-01-07T01:03:43.341Z,100.00
2023-01-07T01:06:15.891Z,100.00
2023-01-07T01:08:45.477Z,100.00
2023-01-07T01:11:15.211Z,100.00
2023-01-07T01:13:43.351Z,100.00
2023-01-07T01:16:17.725Z,100.00
2023-01-07T01:18:45.809Z,100.00
2023-01-07T01:21:14.992Z,100.00
2023-01-07T01:23:42.927Z,100.00
2023-01-07T01:26:16.934Z,100.00
2023-01-07T01:28:44.639Z,100.00
2023-01-07T01:31:11.936Z,100.00
2023-01-07T01:33:38.719Z,100.00
2023-01-07T01:36:08.196Z,100.00
2023-01-07T01:38:35.115Z,100.00
2023-01-07T01:41:02.194Z,100.00
2023-01-07T01:43:33.429Z,100.00
2023-01-07T01:46:22.461Z,100.00
2023-01-07T01:49:28.598Z,100.00
2023-01-07T01:52:02.034Z,100.00
2023-01-07T01:54:29.509Z,100.00
2023-01-07T01:57:00.292Z,100.00
2023-01-07T01:59:31.357Z,100.00
2023-01-07T02:01:58.345Z,100.00
2023-01-07T02:04:27.532Z,100.00
2023-01-07T02:07:12.718Z,100.00
2023-01-07T02:09:39.451Z,100.00
2023-01-07T02:12:22.159Z,100.00
2023-01-07T02:15:13.430Z,100.00
2023-01-07T02:17:56.167Z,100.00
2023-01-07T02:20:46.927Z,100.00
2023-01-07T02:24:04.263Z,100.00
2023-01-07T02:26:58.252Z,100.00
2023-01-07T02:30:04.925Z,100.00
2023-01-07T02:32:57.334Z,100.00
2023-01-07T02:36:06.302Z,100.00
2023-01-07T02:38:38.793Z,100.00
2023-01-07T02:41:23.887Z,100.00
2023-01-07T02:44:01.589Z,100.00
2023-01-07T02:46:39.164Z,100.00
2023-01-07T02:49:10.285Z,100.00
2023-01-07T02:51:40.355Z,100.00
2023-01-07T02:54:16.842Z,100.00
2023-01-07T02:57:42.401Z,100.00
2023-01-07T03:00:39.924Z,100.00
2023-01-07T03:03:27.045Z,100.00
2023-01-07T03:06:24.631Z,100.00
2023-01-07T03:09:12.578Z,100.00
2023-01-07T03:11:49.714Z,100.00
2023-01-07T03:14:26.540Z,100.00
2023-01-07T03:17:03.225Z,100.00
2023-01-07T03:19:35.710Z,100.00
2023-01-07T03:22:07.252Z,100.00
2023-01-07T03:24:34.065Z,100.00
2023-01-07T03:27:04.516Z,100.00
2023-01-07T03:29:32.461Z,100.00
2023-01-07T03:32:08.719Z,100.00
2023-01-07T03:34:37.559Z,100.00
2023-01-07T03:37:10.596Z,100.00
2023-01-07T03:39:38.852Z,100.00
2023-01-07T03:42:30.277Z,100.00
2023-01-07T03:44:58.166Z,100.00
2023-01-07T03:47:25.773Z,100.00
2023-01-07T03:49:52.489Z,100.00
2023-01-07T03:52:19.248Z,100.00
2023-01-07T03:54:46.008Z,100.00
2023-01-07T03:57:12.749Z,100.00
2023-01-07T03:59:39.494Z,100.00
2023-01-07T04:02:06.436Z,100.00
2023-01-07T04:04:33.366Z,100.00
2023-01-07T04:07:00.138Z,100.00
2023-01-07T04:09:26.899Z,100.00
2023-01-07T04:11:53.788Z,100.00
2023-01-07T04:14:20.532Z,100.00
2023-01-07T04:16:47.437Z,100.00
2023-01-07T04:19:14.210Z,100.00
2023-01-07T04:21:41.031Z,100.00
2023-01-07T04:24:08.308Z,100.00
2023-01-07T04:26:35.083Z,100.00
2023-01-07T04:29:01.883Z,100.00
2023-01-07T04:31:28.599Z,100.00
2023-01-07T04:33:55.499Z,100.00
2023-01-07T04:36:22.256Z,100.00
2023-01-07T04:38:49.243Z,100.00
2023-01-07T04:41:16.180Z,100.00
2023-01-07T04:43:42.909Z,100.00
2023-01-07T04:46:09.696Z,100.00
2023-01-07T04:48:36.514Z,100.00
2023-01-07T04:51:03.549Z,100.00
2023-01-07T04:53:30.403Z,100.00
2023-01-07T04:55:57.174Z,100.00
2023-01-07T04:58:23.986Z,100.00
2023-01-07T05:00:52.359Z,100.00
2023-01-07T05:03:20.040Z,100.00
2023-01-07T05:05:46.912Z,100.00
2023-01-07T05:08:13.642Z,100.00
2023-01-07T05:10:40.402Z,100.00
2023-01-07T05:13:07.280Z,100.00
2023-01-07T05:15:34.547Z,100.00
2023-01-07T05:18:01.315Z,100.00
2023-01-07T05:20:28.076Z,100.00
2023-01-07T05:22:54.878Z,100.00
2023-01-07T05:25:21.635Z,100.00
2023-01-07T05:27:48.364Z,100.00
2023-01-07T05:30:15.261Z,100.00
2023-01-07T05:32:42.464Z,100.00
2023-01-07T05:35:09.568Z,100.00
2023-01-07T05:37:36.282Z,100.00
2023-01-07T05:40:03.092Z,100.00
2023-01-07T05:42:29.821Z,100.00
2023-01-07T05:44:56.622Z,100.00
2023-01-07T05:47:23.459Z,100.00
2023-01-07T05:49:50.297Z,100.00
2023-01-07T05:52:17.261Z,100.00
2023-01-07T05:54:43.983Z,100.00
2023-01-07T05:57:11.401Z,100.00
2023-01-07T05:59:38.194Z,100.00
2023-01-07T06:02:05.066Z,100.00
2023-01-07T06:04:32.103Z,100.00
2023-01-07T06:06:58.867Z,100.00
2023-01-07T06:09:25.603Z,100.00
2023-01-07T06:11:52.406Z,100.00
2023-01-07T06:14:19.328Z,100.00
2023-01-07T06:16:46.059Z,100.00
2023-01-07T06:19:12.847Z,100.00
2023-01-07T06:21:39.632Z,100.00
2023-01-07T06:24:07.760Z,100.00
2023-01-07T06:26:34.498Z,100.00
2023-01-07T06:29:01.199Z,100.00
2023-01-07T06:31:27.974Z,100.00
2023-01-07T06:33:55.771Z,100.00
2023-01-07T06:36:22.536Z,100.00
2023-01-07T06:38:49.271Z,100.00
2023-01-07T06:41:16.044Z,100.00
2023-01-07T06:43:42.788Z,100.00
2023-01-07T06:46:09.686Z,100.00
2023-01-07T06:48:36.433Z,100.00
2023-01-07T06:51:03.263Z,100.00
2023-01-07T06:53:30.089Z,100.00
2023-01-07T06:55:56.956Z,100.00
2023-01-07T06:58:23.696Z,100.00
2023-01-07T07:00:50.500Z,100.00
2023-01-07T07:03:17.300Z,100.00
2023-01-07T07:05:44.156Z,100.00
2023-01-07T07:08:11.462Z,100.00
2023-01-07T07:10:38.998Z,100.00
2023-01-07T07:13:05.787Z,100.00
2023-01-07T07:15:32.535Z,100.00
2023-01-07T07:17:59.251Z,100.00
2023-01-07T07:20:25.979Z,100.00
2023-01-07T07:22:52.695Z,100.00
2023-01-07T07:25:19.725Z,100.00
2023-01-07T07:27:47.437Z,100.00
2023-01-07T07:30:15.790Z,100.00
2023-01-07T07:32:43.232Z,100.00
2023-01-07T07:35:11.092Z,100.00
2023-01-07T07:37:38.367Z,100.00
2023-01-07T07:40:06.507Z,100.00
2023-01-07T07:43:10.248Z,100.00
2023-01-07T07:45:20.184Z,100.00
2023-01-07T07:47:47.308Z,100.00
2023-01-07T07:50:14.072Z,100.00
2023-01-07T07:52:40.985Z,100.00
2023-01-07T07:55:20.175Z,100.00
2023-01-07T07:57:57.041Z,100.00
2023-01-07T08:00:24.690Z,100.00
2023-01-07T08:02:51.440Z,100.00
2023-01-07T08:05:18.326Z,100.00
2023-01-07T08:07:45.087Z,100.00
2023-01-07T08:10:11.842Z,100.00
2023-01-07T08:12:39.565Z,100.00
2023-01-07T08:15:08.406Z,100.00
2023-01-07T08:17:36.556Z,100.00
2023-01-07T08:20:08.422Z,100.00
2023-01-07T08:22:35.634Z,100.00
2023-01-07T08:25:03.098Z,100.00
2023-01-07T08:27:30.116Z,100.00
2023-01-07T08:29:57.268Z,100.00
2023-01-07T08:32:24.159Z,100.00
2023-01-07T08:34:50.929Z,100.00
2023-01-07T08:37:17.680Z,100.00
2023-01-07T08:39:44.514Z,100.00
2023-01-07T08:42:11.259Z,100.00
2023-01-07T08:44:37.995Z,100.00
2023-01-07T08:47:04.788Z,100.00
2023-01-07T08:49:31.960Z,98.93
2023-01-07T08:51:58.721Z,98.52
2023-01-07T08:54:25.474Z,98.40
2023-01-07T08:56:52.237Z,97.67
2023-01-07T08:59:19.038Z,97.72
2023-01-07T09:01:45.958Z,97.56
2023-01-07T09:04:12.799Z,98.08
2023-01-07T09:06:39.552Z,98.92
2023-01-07T09:09:06.510Z,98.37
2023-01-07T09:11:33.277Z,98.41
2023-01-07T09:14:00.028Z,100.00
2023-01-07T09:16:26.776Z,98.95
2023-01-07T09:18:53.506Z,99.37
2023-01-07T09:21:20.293Z,99.40
2023-01-07T09:23:47.029Z,99.23
2023-01-07T09:26:13.852Z,98.71
2023-01-07T09:28:40.596Z,98.58
2023-01-07T09:31:08.129Z,98.58
2023-01-07T09:33:35.126Z,99.29
2023-01-07T09:36:01.909Z,98.87
2023-01-07T09:38:28.806Z,98.53
2023-01-07T09:40:55.847Z,98.85
2023-01-07T09:44:00.533Z,98.68
2023-01-07T09:46:20.843Z,98.94
2023-01-07T09:48:54.129Z,98.61
2023-01-07T09:51:39.124Z,97.66
2023-01-07T09:54:37.303Z,97.16
2023-01-07T09:57:04.978Z,97.47
2023-01-07T09:59:32.386Z,97.90
2023-01-07T10:02:32.100Z,97.65
2023-01-07T10:05:35.789Z,96.98
2023-01-07T10:08:32.538Z,97.24
2023-01-07T10:11:35.032Z,97.65
2023-01-07T10:14:37.068Z,98.49
2023-01-07T10:17:22.037Z,97.93
2023-01-07T10:20:10.004Z,97.54
2023-01-07T10:22:54.001Z,98.08
2023-01-07T10:25:25.614Z,97.79
2023-01-07T10:27:58.934Z,96.78
2023-01-07T10:30:30.543Z,96.89
2023-01-07T10:33:15.975Z,97.56
2023-01-07T10:35:42.891Z,97.29
2023-01-07T10:38:19.213Z,96.59
2023-01-07T10:40:51.123Z,94.96
2023-01-07T10:43:38.891Z,94.94
2023-01-07T10:46:17.720Z,95.11
2023-01-07T10:49:05.843Z,95.00
2023-01-07T10:52:11.427Z,94.21
2023-01-07T10:54:52.720Z,93.79
2023-01-07T10:57:26.209Z,93.25
2023-01-07T10:59:57.816Z,93.08
2023-01-07T11:02:27.795Z,93.19
2023-01-07T11:04:59.271Z,93.17
2023-01-07T11:07:54.047Z,92.07
2023-01-07T11:10:29.273Z,93.01
2023-01-07T11:13:01.862Z,92.03
2023-01-07T11:15:35.342Z,93.21
2023-01-07T11:18:11.760Z,92.75
2023-01-07T11:20:46.324Z,91.79
2023-01-07T11:23:29.061Z,92.26
2023-01-07T11:26:10.943Z,91.38
2023-01-07T11:28:47.518Z,91.42
2023-01-07T11:31:14.252Z,91.21
2023-01-07T11:34:01.957Z,89.94
2023-01-07T11:36:41.895Z,89.49
2023-01-07T11:39:19.982Z,88.95
2023-01-07T11:42:35.748Z,88.05
2023-01-07T11:46:19.184Z,88.54
2023-01-07T11:48:54.776Z,88.94
2023-01-07T11:51:23.206Z,88.28
2023-01-07T11:53:49.864Z,88.48
2023-01-07T11:56:28.177Z,89.01
2023-01-07T11:59:15.682Z,87.96
2023-01-07T12:01:53.637Z,89.06
2023-01-07T12:04:33.686Z,88.19
2023-01-07T12:07:15.671Z,88.38
2023-01-07T12:09:44.855Z,88.83
2023-01-07T12:12:34.748Z,89.18
2023-01-07T12:15:06.920Z,89.52
2023-01-07T12:17:35.404Z,89.01
2023-01-07T12:20:39.532Z,89.91
2023-01-07T12:23:22.334Z,89.19
2023-01-07T12:26:08.979Z,88.30
2023-01-07T12:29:37.733Z,87.28
2023-01-07T12:32:31.713Z,86.78
2023-01-07T12:35:14.356Z,85.64
2023-01-07T12:38:03.551Z,85.44
2023-01-07T12:40:41.987Z,85.02
2023-01-07T12:43:20.466Z,84.28
2023-01-07T12:46:00.398Z,83.38
2023-01-07T12:48:38.874Z,83.72
2023-01-07T12:51:17.220Z,82.64
2023-01-07T12:54:13.092Z,81.21
2023-01-07T12:56:49.588Z,81.80
2023-01-07T12:59:46.041Z,81.71
2023-01-07T13:02:19.912Z,82.18
2023-01-07T13:05:12.863Z,80.96
2023-01-07T13:08:17.912Z,81.82
2023-01-07T13:11:14.767Z,81.19
2023-01-07T13:13:48.809Z,80.90
2023-01-07T13:16:15.684Z,79.95
2023-01-07T13:18:42.488Z,80.31
2023-01-07T13:21:11.282Z,79.12
2023-01-07T13:23:56.596Z,80.85
2023-01-07T13:26:49.290Z,80.14
2023-01-07T13:29:47.142Z,81.16
2023-01-07T13:32:52.637Z,80.72
2023-01-07T13:36:03.436Z,80.26
2023-01-07T13:39:05.050Z,79.73
2023-01-07T13:42:22.084Z,80.07
2023-01-07T13:45:02.375Z,78.85
2023-01-07T13:47:42.312Z,79.39
2023-01-07T13:50:37.835Z,78.92
2023-01-07T13:53:28.117Z,78.43
2023-01-07T13:56:17.557Z,78.04
2023-01-07T13:58:50.073Z,77.41
2023-01-07T14:01:19.557Z,78.01
2023-01-07T14:04:06.289Z,77.14
2023-01-07T14:06:39.502Z,77.99
2023-01-07T14:09:13.533Z,77.60
2023-01-07T14:12:29.941Z,77.73
2023-01-07T14:15:37.306Z,77.75
2023-01-07T14:18:26.304Z,79.59
2023-01-07T14:21:11.292Z,78.82
2023-01-07T14:24:04.927Z,78.11
2023-01-07T14:26:43.800Z,77.93
2023-01-07T14:29:40.959Z,79.64
2023-01-07T14:32:30.936Z,79.87
2023-01-07T14:35:03.540Z,80.67
2023-01-07T14:37:45.230Z,81.51
2023-01-07T14:40:27.331Z,81.42
2023-01-07T14:42:55.631Z,81.59
2023-01-07T14:45:37.124Z,81.62
2023-01-07T14:48:12.777Z,81.73
2023-01-07T14:51:00.639Z,82.24
2023-01-07T14:54:13.287Z,82.56
2023-01-07T14:57:10.204Z,82.85
2023-01-07T15:00:06.215Z,82.69
2023-01-07T15:03:18.728Z,83.49
2023-01-07T15:06:26.866Z,83.63
2023-01-07T15:09:30.484Z,84.10
2023-01-07T15:12:18.667Z,84.11
2023-01-07T15:15:12.512Z,83.56
2023-01-07T15:17:40.165Z,83.91
2023-01-07T15:20:10.349Z,83.76
2023-01-07T15:22:55.607Z,83.80
2023-01-07T15:25:45.552Z,84.27
2023-01-07T15:28:21.108Z,84.96
2023-01-07T15:31:04.870Z,84.82
2023-01-07T15:33:53.279Z,85.36
2023-01-07T15:36:20.221Z,85.43
2023-01-07T15:38:53.896Z,85.19
2023-01-07T15:41:36.606Z,85.63
2023-01-07T15:44:41.270Z,86.34
2023-01-07T15:47:43.444Z,86.73
2023-01-07T15:50:24.128Z,86.22
2023-01-07T15:53:00.156Z,86.25
2023-01-07T15:55:35.010Z,86.67
2023-01-07T15:58:12.447Z,87.21
2023-01-07T16:00:39.369Z,87.53
2023-01-07T16:03:07.757Z,87.69
2023-01-07T16:05:38.031Z,88.66
2023-01-07T16:08:05.801Z,88.71
2023-01-07T16:10:35.405Z,88.62
2023-01-07T16:13:06.134Z,89.17
2023-01-07T16:15:41.383Z,89.52
2023-01-07T16:18:11.357Z,90.05
2023-01-07T16:20:51.487Z,89.34
2023-01-07T16:23:31.066Z,89.05
2023-01-07T16:26:07.737Z,89.54
2023-01-07T16:28:41.727Z,89.94
2023-01-07T16:31:13.655Z,90.21
2023-01-07T16:33:42.507Z,89.82
2023-01-07T16:36:27.110Z,89.53
2023-01-07T16:38:58.954Z,90.33
2023-01-07T16:41:29.893Z,91.15
2023-01-07T16:44:00.399Z,91.31
2023-01-07T16:46:33.261Z,91.84
2023-01-07T16:49:11.936Z,92.22
2023-01-07T16:52:06.908Z,92.78
2023-01-07T16:54:40.109Z,93.70
2023-01-07T16:57:12.541Z,93.71
2023-01-07T16:59:55.480Z,93.61
2023-01-07T17:02:37.499Z,93.51
2023-01-07T17:05:18.928Z,93.81
2023-01-07T17:08:03.142Z,93.51
2023-01-07T17:10:37.563Z,94.04
2023-01-07T17:13:24.208Z,93.92
2023-01-07T17:15:51.237Z,94.46
2023-01-07T17:18:18.028Z,94.68
2023-01-07T17:20:52.827Z,94.75
2023-01-07T17:23:27.940Z,93.94
2023-01-07T17:26:17.566Z,94.94
2023-01-07T17:28:52.756Z,94.74
2023-01-07T17:31:20.221Z,94.21
2023-01-07T17:33:47.400Z,94.40
2023-01-07T17:36:19.067Z,94.37
2023-01-07T17:38:46.405Z,94.90
2023-01-07T17:41:38.688Z,95.30
2023-01-07T17:44:08.155Z,95.54
2023-01-07T17:46:38.953Z,96.04
2023-01-07T17:49:05.824Z,95.62
2023-01-07T17:51:38.531Z,95.35
2023-01-07T17:54:06.886Z,95.36
2023-01-07T17:56:34.194Z,95.66
2023-01-07T17:59:01.019Z,95.93
2023-01-07T18:01:28.036Z,96.20
2023-01-07T18:03:54.904Z,95.75
2023-01-07T18:06:25.538Z,96.15
2023-01-07T18:08:53.106Z,96.14
2023-01-07T18:11:44.187Z,96.20
2023-01-07T18:14:14.826Z,96.33
2023-01-07T18:16:43.148Z,96.46
2023-01-07T18:19:14.640Z,96.41
2023-01-07T18:21:41.807Z,96.85
2023-01-07T18:24:20.381Z,96.59
2023-01-07T18:26:47.691Z,96.48
2023-01-07T18:29:14.760Z,97.03
2023-01-07T18:31:44.027Z,97.19
2023-01-07T18:34:14.352Z,97.03
2023-01-07T18:36:41.644Z,97.04
2023-01-07T18:39:11.002Z,97.07
2023-01-07T18:41:39.851Z,97.14
2023-01-07T18:44:06.948Z,97.38
2023-01-07T18:46:33.953Z,97.34
2023-01-07T18:49:00.917Z,97.53
2023-01-07T18:51:27.756Z,97.10
2023-01-07T18:53:54.450Z,97.39
2023-01-07T18:56:21.215Z,97.65
2023-01-07T18:58:48.290Z,97.57
2023-01-07T19:01:15.146Z,97.86
2023-01-07T19:03:42.154Z,98.12
2023-01-07T19:06:10.518Z,98.15
2023-01-07T19:08:38.147Z,98.34
2023-01-07T19:11:09.869Z,98.52
2023-01-07T19:13:36.914Z,98.49
2023-01-07T19:16:08.640Z,99.10
2023-01-07T19:18:35.617Z,99.43
2023-01-07T19:21:07.746Z,99.79
2023-01-07T19:23:34.725Z,99.86
2023-01-07T19:26:04.910Z,100.00
2023-01-07T19:28:32.885Z,100.00
2023-01-07T19:31:00.133Z,100.00
2023-01-07T19:33:26.905Z,100.00
2023-01-07T19:36:11.716Z,100.00
2023-01-07T19:38:48.860Z,100.00
2023-01-07T19:41:19.498Z,100.00
2023-01-07T19:43:47.364Z,100.00
2023-01-07T19:46:15.811Z,100.00
2023-01-07T19:48:43.046Z,100.00
2023-01-07T19:51:10.979Z,100.00
2023-01-07T19:53:38.323Z,100.00
2023-01-07T19:56:11.777Z,100.00
2023-01-07T19:58:40.341Z,100.00
2023-01-07T20:01:11.812Z,100.00
2023-01-07T20:03:39.177Z,100.00
2023-01-07T20:06:15.039Z,100.00
2023-01-07T20:08:42.026Z,100.00
2023-01-07T20:11:09.290Z,100.00
2023-01-07T20:13:37.915Z,100.00
2023-01-07T20:16:14.267Z,100.00
2023-01-07T20:18:46.734Z,100.00
2023-01-07T20:21:16.594Z,100.00
2023-01-07T20:23:44.311Z,100.00
2023-01-07T20:26:16.217Z,100.00
2023-01-07T20:28:43.824Z,100.00
2023-01-07T20:31:14.635Z,100.00
2023-01-07T20:33:42.841Z,100.00
2023-01-07T20:36:16.307Z,100.00
2023-01-07T20:38:44.685Z,100.00
2023-01-07T20:41:15.727Z,100.00
2023-01-07T20:43:42.594Z,100.00
2023-01-07T20:46:10.641Z,100.00
2023-01-07T20:48:37.993Z,100.00
2023-01-07T20:51:09.121Z,100.00
2023-01-07T20:53:37.130Z,100.00
2023-01-07T20:56:05.145Z,100.00
2023-01-07T20:58:34.695Z,100.00
2023-01-07T21:01:11.462Z,100.00
2023-01-07T21:03:39.549Z,100.00
2023-01-07T21:06:09.929Z,100.00
2023-01-07T21:08:37.992Z,100.00
2023-01-07T21:11:10.971Z,100.00
2023-01-07T21:13:37.716Z,100.00
2023-01-07T21:16:05.682Z,100.00
2023-01-07T21:18:33.932Z,100.00
2023-01-07T21:21:02.648Z,100.00
2023-01-07T21:23:29.378Z,100.00
2023-01-07T21:25:56.205Z,100.00
2023-01-07T21:28:22.907Z,100.00
2023-01-07T21:30:50.196Z,100.00
2023-01-07T21:33:17.143Z,100.00
2023-01-07T21:35:43.967Z,100.00
2023-01-07T21:38:10.735Z,100.00
2023-01-07T21:40:39.420Z,100.00
2023-01-07T21:43:06.777Z,100.00
2023-01-07T21:45:33.738Z,100.00
2023-01-07T21:48:00.586Z,100.00
2023-01-07T21:50:27.371Z,100.00
2023-01-07T21:52:54.097Z,100.00
2023-01-07T21:55:20.933Z,100.00
2023-01-07T21:57:47.695Z,100.00
2023-01-07T22:00:15.355Z,100.00
2023-01-07T22:02:42.104Z,100.00
2023-01-07T22:05:09.509Z,100.00
2023-01-07T22:07:36.236Z,100.00
2023-01-07T22:10:03.438Z,100.00
2023-01-07T22:12:30.224Z,100.00
2023-01-07T22:14:57.147Z,100.00
2023-01-07T22:17:24.576Z,100.00
2023-01-07T22:19:51.419Z,100.00
2023-01-07T22:22:20.773Z,100.00
2023-01-07T22:24:47.569Z,100.00
2023-01-07T22:27:14.598Z,100.00
2023-01-07T22:29:42.285Z,100.00
2023-01-07T22:32:09.085Z,100.00
2023-01-07T22:34:35.851Z,100.00
2023-01-07T22:37:11.286Z,100.00
2023-01-07T22:39:51.921Z,100.00
2023-01-07T22:42:33.355Z,100.00
2023-01-07T22:45:10.766Z,100.00
2023-01-07T22:47:42.194Z,100.00
2023-01-07T22:50:10.244Z,100.00
2023-01-07T22:52:38.140Z,100.00
2023-01-07T22:55:05.878Z,100.00
2023-01-07T22:57:34.560Z,100.00
2023-01-07T23:00:01.284Z,100.00
2023-01-07T23:02:28.528Z,100.00
2023-01-07T23:04:55.231Z,100.00
2023-01-07T23:07:21.976Z,100.00
2023-01-07T23:09:50.763Z,100.00
2023-01-07T23:12:18.391Z,100.00
2023-01-07T23:14:45.323Z,100.00
2023-01-07T23:17:12.180Z,100.00
2023-01-07T23:19:38.960Z,100.00
2023-01-07T23:22:05.790Z,100.00
2023-01-07T23:24:32.528Z,100.00
2023-01-07T23:26:59.476Z,100.00
2023-01-07T23:29:26.415Z,100.00
2023-01-07T23:31:53.214Z,100.00
2023-01-07T23:34:20.144Z,100.00
2023-01-07T23:36:46.865Z,100.00
2023-01-07T23:39:13.738Z,100.00
2023-01-07T23:41:40.635Z,100.00
2023-01-07T23:44:07.501Z,100.00
2023-01-07T23:46:34.313Z,100.00
2023-01-07T23:49:01.101Z,100.00
2023-01-07T23:51:27.943Z,100.00
2023-01-07T23:53:54.813Z,100.00
2023-01-07T23:56:22.265Z,100.00
2023-01-07T23:58:50.083Z,100.00
